BAW46EZ EGLL-LEMD
Flight info
| Callsign | BAW46EZ |
|---|---|
| Flight time | 1h 55m |
| Altitude | 31000 |
| Route | GASGU N866 SAM M195 IBNID/N0452F330 M195 MARUK N621 LELNA DCT NOVAN DCT DELOG N864 NONTU |
| Aircraft | B772/H-SDE1E3FGHIJ3J5J6M1M2P2RWXYZ/LB1D1 |
Departure
| Time | 2026-04-30 18:17 |
|---|---|
| Airport | London Heathrow Airport (EGLL) |
Arrival
| Time | 2026-04-30 20:12 |
|---|---|
| Airport | Adolfo Suárez Madrid–Barajas Airport (LEMD) |
| Time | Latitude | Longitude | Altitude | Speed | Heading |
|---|---|---|---|---|---|
| 2026-04-30 17:39 | 51.47314 | -0.48234 | 91 ft | 0 kts | 90° |
| 2026-04-30 18:03 | 51.47316 | -0.48344 | 91 ft | 2 kts | 108° |
| 2026-04-30 18:04 | 51.47333 | -0.48362 | 92 ft | 0 kts | 178° |
| 2026-04-30 18:09 | 51.47218 | -0.48359 | 91 ft | 7 kts | 179° |
| 2026-04-30 18:10 | 51.46913 | -0.48358 | 94 ft | 15 kts | 180° |
| 2026-04-30 18:11 | 51.46647 | -0.48703 | 93 ft | 14 kts | 252° |
| 2026-04-30 18:11 | 51.46606 | -0.48759 | 95 ft | 0 kts | 201° |
| 2026-04-30 18:13 | 51.46598 | -0.48764 | 95 ft | 5 kts | 201° |
| 2026-04-30 18:14 | 51.46478 | -0.48631 | 95 ft | 12 kts | 92° |
| 2026-04-30 18:15 | 51.46478 | -0.48556 | 93 ft | 0 kts | 89° |
| 2026-04-30 18:16 | 51.46482 | -0.47064 | 95 ft | 146 kts | 90° |
| 2026-04-30 18:17 | 51.46481 | -0.45230 | 641 ft | 172 kts | 92° |
| 2026-04-30 18:17 | 51.46347 | -0.43312 | 1838 ft | 168 kts | 104° |
| 2026-04-30 18:17 | 51.45518 | -0.39569 | 3333 ft | 193 kts | 125° |
| 2026-04-30 18:18 | 51.44716 | -0.37673 | 3727 ft | 219 kts | 126° |
| 2026-04-30 18:18 | 51.43817 | -0.35530 | 4201 ft | 239 kts | 127° |
| 2026-04-30 18:18 | 51.42595 | -0.33650 | 4818 ft | 250 kts | 152° |
| 2026-04-30 18:18 | 51.40951 | -0.32817 | 5551 ft | 250 kts | 174° |
| 2026-04-30 18:19 | 51.39207 | -0.33128 | 5989 ft | 258 kts | 197° |
| 2026-04-30 18:19 | 51.37618 | -0.34544 | 5997 ft | 264 kts | 217° |
| 2026-04-30 18:19 | 51.36237 | -0.36495 | 6030 ft | 266 kts | 218° |
| 2026-04-30 18:19 | 51.34854 | -0.38469 | 5986 ft | 267 kts | 218° |
| 2026-04-30 18:20 | 51.33477 | -0.40421 | 6004 ft | 265 kts | 218° |
| 2026-04-30 18:20 | 51.32093 | -0.42414 | 5994 ft | 265 kts | 221° |
| 2026-04-30 18:20 | 51.30940 | -0.44716 | 5992 ft | 266 kts | 235° |
| 2026-04-30 18:20 | 51.30074 | -0.47339 | 6011 ft | 271 kts | 243° |
| 2026-04-30 18:21 | 51.29452 | -0.50201 | 5993 ft | 275 kts | 249° |
| 2026-04-30 18:21 | 51.28938 | -0.53124 | 5990 ft | 273 kts | 251° |
| 2026-04-30 18:21 | 51.28425 | -0.56064 | 6538 ft | 278 kts | 251° |
| 2026-04-30 18:21 | 51.27890 | -0.59050 | 7396 ft | 279 kts | 250° |
| 2026-04-30 18:22 | 51.27322 | -0.62016 | 8169 ft | 282 kts | 249° |
| 2026-04-30 18:22 | 51.26138 | -0.68124 | 9675 ft | 291 kts | 249° |
| 2026-04-30 18:22 | 51.25537 | -0.71215 | 10375 ft | 294 kts | 249° |
| 2026-04-30 18:23 | 51.24929 | -0.74345 | 11075 ft | 297 kts | 249° |
| 2026-04-30 18:23 | 51.24306 | -0.77527 | 11776 ft | 306 kts | 249° |
| 2026-04-30 18:23 | 51.23652 | -0.80877 | 12173 ft | 329 kts | 249° |
| 2026-04-30 18:23 | 51.22943 | -0.84515 | 12470 ft | 355 kts | 249° |
| 2026-04-30 18:24 | 51.21425 | -0.92266 | 14130 ft | 374 kts | 249° |
| 2026-04-30 18:24 | 51.20487 | -0.96062 | 14849 ft | 367 kts | 235° |
| 2026-04-30 18:24 | 51.18859 | -0.99137 | 15180 ft | 367 kts | 219° |
| 2026-04-30 18:25 | 51.16978 | -1.01927 | 15338 ft | 373 kts | 219° |
| 2026-04-30 18:25 | 51.13183 | -1.07599 | 17312 ft | 375 kts | 219° |
| 2026-04-30 18:25 | 51.11279 | -1.10474 | 18168 ft | 381 kts | 220° |
| 2026-04-30 18:26 | 51.07413 | -1.16357 | 19601 ft | 389 kts | 220° |
| 2026-04-30 18:26 | 51.05445 | -1.19361 | 20319 ft | 392 kts | 219° |
| 2026-04-30 18:26 | 51.03446 | -1.22411 | 21054 ft | 396 kts | 219° |
| 2026-04-30 18:27 | 50.99448 | -1.28501 | 22419 ft | 403 kts | 219° |
| 2026-04-30 18:27 | 50.97422 | -1.31580 | 23098 ft | 407 kts | 219° |
| 2026-04-30 18:28 | 50.93018 | -1.37215 | 24295 ft | 408 kts | 209° |
| 2026-04-30 18:28 | 50.90625 | -1.39682 | 24834 ft | 412 kts | 209° |
| 2026-04-30 18:28 | 50.85785 | -1.44659 | 25918 ft | 419 kts | 210° |
| 2026-04-30 18:29 | 50.83303 | -1.47222 | 26451 ft | 423 kts | 210° |
| 2026-04-30 18:29 | 50.75836 | -1.54960 | 27949 ft | 435 kts | 211° |
| 2026-04-30 18:30 | 50.71585 | -1.59360 | 28783 ft | 442 kts | 211° |
| 2026-04-30 18:30 | 50.65522 | -1.65625 | 29960 ft | 449 kts | 211° |
| 2026-04-30 18:31 | 50.62898 | -1.68329 | 30381 ft | 453 kts | 212° |
| 2026-04-30 18:31 | 50.57688 | -1.73689 | 31116 ft | 440 kts | 211° |
| 2026-04-30 18:32 | 50.50000 | -1.81554 | 31115 ft | 442 kts | 211° |
| 2026-04-30 18:33 | 50.42245 | -1.89410 | 31105 ft | 443 kts | 211° |
| 2026-04-30 18:33 | 50.34515 | -1.97221 | 31102 ft | 440 kts | 211° |
| 2026-04-30 18:34 | 50.26835 | -2.04744 | 31090 ft | 431 kts | 204° |
| 2026-04-30 18:35 | 50.21127 | -2.07653 | 31103 ft | 431 kts | 189° |
| 2026-04-30 18:35 | 50.15172 | -2.08556 | 31099 ft | 432 kts | 183° |
| 2026-04-30 18:36 | 50.06216 | -2.09634 | 31089 ft | 432 kts | 184° |
| 2026-04-30 18:37 | 49.97245 | -2.11190 | 31095 ft | 432 kts | 191° |
| 2026-04-30 18:37 | 49.91465 | -2.13764 | 31098 ft | 433 kts | 196° |
| 2026-04-30 18:38 | 49.85728 | -2.16495 | 31099 ft | 433 kts | 196° |
| 2026-04-30 18:38 | 49.79911 | -2.19230 | 31457 ft | 434 kts | 196° |
| 2026-04-30 18:38 | 49.77023 | -2.20578 | 31757 ft | 433 kts | 196° |
| 2026-04-30 18:39 | 49.74145 | -2.21916 | 32155 ft | 433 kts | 196° |
| 2026-04-30 18:39 | 49.71278 | -2.23246 | 32677 ft | 431 kts | 196° |
| 2026-04-30 18:39 | 49.68429 | -2.24566 | 33119 ft | 428 kts | 196° |
| 2026-04-30 18:40 | 49.62706 | -2.27212 | 33093 ft | 425 kts | 196° |
| 2026-04-30 18:40 | 49.56924 | -2.29876 | 33107 ft | 440 kts | 196° |
| 2026-04-30 18:41 | 49.51088 | -2.32561 | 33071 ft | 438 kts | 196° |
| 2026-04-30 18:41 | 49.45269 | -2.35233 | 33074 ft | 436 kts | 196° |
| 2026-04-30 18:42 | 49.39460 | -2.37892 | 33078 ft | 435 kts | 196° |
| 2026-04-30 18:42 | 49.30786 | -2.41851 | 33080 ft | 434 kts | 196° |
| 2026-04-30 18:45 | 48.98926 | -2.56267 | 33070 ft | 433 kts | 196° |
| 2026-04-30 18:46 | 48.94105 | -2.58432 | 33069 ft | 433 kts | 196° |
| 2026-04-30 18:46 | 48.88329 | -2.61019 | 33070 ft | 433 kts | 195° |
| 2026-04-30 18:47 | 48.82536 | -2.63609 | 33071 ft | 434 kts | 195° |
| 2026-04-30 18:47 | 48.76768 | -2.66181 | 33072 ft | 434 kts | 195° |
| 2026-04-30 18:48 | 48.70968 | -2.68760 | 33074 ft | 434 kts | 195° |
| 2026-04-30 18:48 | 48.65159 | -2.71338 | 33074 ft | 435 kts | 195° |
| 2026-04-30 18:49 | 48.59362 | -2.73905 | 33076 ft | 434 kts | 195° |
| 2026-04-30 18:49 | 48.53574 | -2.76460 | 33080 ft | 434 kts | 195° |
| 2026-04-30 18:50 | 48.47742 | -2.79029 | 33075 ft | 434 kts | 195° |
| 2026-04-30 18:50 | 48.41970 | -2.81566 | 33075 ft | 435 kts | 195° |
| 2026-04-30 18:51 | 48.36157 | -2.84115 | 33076 ft | 435 kts | 195° |
| 2026-04-30 18:51 | 48.30357 | -2.86652 | 33080 ft | 436 kts | 195° |
| 2026-04-30 18:52 | 48.24501 | -2.89207 | 33081 ft | 437 kts | 195° |
| 2026-04-30 18:52 | 48.18693 | -2.91735 | 33086 ft | 437 kts | 195° |
| 2026-04-30 18:53 | 48.12823 | -2.94284 | 33085 ft | 439 kts | 195° |
| 2026-04-30 18:53 | 48.06943 | -2.96833 | 33091 ft | 439 kts | 196° |
| 2026-04-30 18:54 | 48.01098 | -2.99360 | 33093 ft | 440 kts | 196° |
| 2026-04-30 18:54 | 47.95199 | -3.01904 | 33093 ft | 440 kts | 196° |
| 2026-04-30 18:55 | 47.89328 | -3.04429 | 33100 ft | 441 kts | 196° |
| 2026-04-30 18:55 | 47.80492 | -3.08219 | 33103 ft | 441 kts | 196° |
| 2026-04-30 18:56 | 47.71630 | -3.12008 | 33103 ft | 442 kts | 196° |
| 2026-04-30 18:57 | 47.62747 | -3.15790 | 33105 ft | 443 kts | 197° |
| 2026-04-30 18:57 | 47.56831 | -3.18303 | 33104 ft | 444 kts | 197° |
| 2026-04-30 18:58 | 47.47876 | -3.22095 | 33109 ft | 446 kts | 197° |
| 2026-04-30 18:59 | 47.38909 | -3.25877 | 33111 ft | 447 kts | 197° |
| 2026-04-30 19:00 | 47.26955 | -3.30900 | 33112 ft | 448 kts | 197° |
| 2026-04-30 19:01 | 47.14954 | -3.35918 | 33119 ft | 449 kts | 197° |
| 2026-04-30 19:02 | 47.05943 | -3.39672 | 33124 ft | 449 kts | 197° |
| 2026-04-30 19:03 | 46.93907 | -3.44664 | 33116 ft | 449 kts | 197° |
| 2026-04-30 19:04 | 46.81873 | -3.49633 | 33125 ft | 450 kts | 197° |
| 2026-04-30 19:05 | 46.69846 | -3.54574 | 33124 ft | 450 kts | 198° |
| 2026-04-30 19:06 | 46.57772 | -3.59513 | 33120 ft | 451 kts | 198° |
| 2026-04-30 19:06 | 46.48721 | -3.63200 | 33125 ft | 451 kts | 198° |
| 2026-04-30 19:07 | 46.39676 | -3.66873 | 33123 ft | 451 kts | 198° |
| 2026-04-30 19:08 | 46.27394 | -3.70750 | 33130 ft | 453 kts | 188° |
| 2026-04-30 19:09 | 46.17852 | -3.72088 | 33136 ft | 470 kts | 188° |
| 2026-04-30 19:09 | 46.11390 | -3.73017 | 33124 ft | 468 kts | 188° |
| 2026-04-30 19:10 | 45.98474 | -3.74930 | 33134 ft | 464 kts | 188° |
| 2026-04-30 19:11 | 45.88873 | -3.76355 | 33129 ft | 463 kts | 188° |
| 2026-04-30 19:12 | 45.82470 | -3.77303 | 33135 ft | 464 kts | 188° |
| 2026-04-30 19:12 | 45.76042 | -3.78250 | 33135 ft | 464 kts | 188° |
| 2026-04-30 19:13 | 45.63211 | -3.80135 | 33135 ft | 464 kts | 188° |
| 2026-04-30 19:14 | 45.56787 | -3.81075 | 33132 ft | 463 kts | 188° |
| 2026-04-30 19:14 | 45.50367 | -3.82013 | 33138 ft | 463 kts | 188° |
| 2026-04-30 19:15 | 45.43970 | -3.82945 | 33136 ft | 462 kts | 188° |
| 2026-04-30 19:15 | 45.34393 | -3.84336 | 33133 ft | 461 kts | 188° |
| 2026-04-30 19:16 | 45.28029 | -3.85258 | 33136 ft | 461 kts | 188° |
| 2026-04-30 19:17 | 45.18471 | -3.86639 | 33141 ft | 461 kts | 188° |
| 2026-04-30 19:17 | 45.08866 | -3.88023 | 33141 ft | 465 kts | 188° |
| 2026-04-30 19:18 | 44.99143 | -3.89420 | 33137 ft | 469 kts | 188° |
| 2026-04-30 19:19 | 44.92659 | -3.90346 | 33146 ft | 468 kts | 188° |
| 2026-04-30 19:19 | 44.82965 | -3.91730 | 33144 ft | 466 kts | 188° |
| 2026-04-30 19:20 | 44.76541 | -3.92643 | 33147 ft | 465 kts | 188° |
| 2026-04-30 19:21 | 44.66888 | -3.94013 | 33142 ft | 465 kts | 188° |
| 2026-04-30 19:22 | 44.54039 | -3.95829 | 33142 ft | 464 kts | 188° |
| 2026-04-30 19:23 | 44.34759 | -3.98532 | 33149 ft | 464 kts | 187° |
| 2026-04-30 19:24 | 44.25082 | -3.98120 | 33158 ft | 467 kts | 178° |
| 2026-04-30 19:25 | 44.08872 | -3.96432 | 33147 ft | 466 kts | 179° |
| 2026-04-30 19:26 | 43.95933 | -3.95171 | 33149 ft | 465 kts | 179° |
| 2026-04-30 19:27 | 43.86283 | -3.94231 | 33149 ft | 465 kts | 179° |
| 2026-04-30 19:28 | 43.76623 | -3.93293 | 33151 ft | 464 kts | 179° |
| 2026-04-30 19:29 | 43.63766 | -3.92033 | 33140 ft | 463 kts | 179° |
| 2026-04-30 19:30 | 43.50909 | -3.90776 | 33134 ft | 463 kts | 179° |
| 2026-04-30 19:31 | 43.38141 | -3.91135 | 33143 ft | 458 kts | 189° |
| 2026-04-30 19:31 | 43.28648 | -3.92634 | 33140 ft | 459 kts | 188° |
| 2026-04-30 19:32 | 43.22323 | -3.93583 | 33147 ft | 459 kts | 188° |
| 2026-04-30 19:32 | 43.15976 | -3.94522 | 33145 ft | 457 kts | 188° |
| 2026-04-30 19:33 | 43.09656 | -3.95455 | 33159 ft | 457 kts | 188° |
| 2026-04-30 19:33 | 43.03336 | -3.96389 | 33155 ft | 457 kts | 188° |
| 2026-04-30 19:34 | 42.97024 | -3.97319 | 33150 ft | 457 kts | 188° |
| 2026-04-30 19:35 | 42.87545 | -3.98709 | 33157 ft | 457 kts | 188° |
| 2026-04-30 19:35 | 42.81222 | -3.99633 | 33144 ft | 457 kts | 188° |
| 2026-04-30 19:36 | 42.74901 | -4.00555 | 33149 ft | 456 kts | 188° |
| 2026-04-30 19:36 | 42.65430 | -4.01934 | 33132 ft | 456 kts | 188° |
| 2026-04-30 19:37 | 42.59129 | -4.02849 | 33146 ft | 456 kts | 187° |
| 2026-04-30 19:37 | 42.52834 | -4.03758 | 33130 ft | 456 kts | 187° |
| 2026-04-30 19:38 | 42.46543 | -4.04662 | 33141 ft | 455 kts | 187° |
| 2026-04-30 19:38 | 42.40221 | -4.05567 | 33129 ft | 455 kts | 187° |
| 2026-04-30 19:39 | 42.33966 | -4.06463 | 33129 ft | 455 kts | 187° |
| 2026-04-30 19:39 | 42.27634 | -4.07367 | 33130 ft | 455 kts | 187° |
| 2026-04-30 19:40 | 42.21381 | -4.08259 | 33132 ft | 455 kts | 187° |
| 2026-04-30 19:40 | 42.15074 | -4.09157 | 33133 ft | 454 kts | 187° |
| 2026-04-30 19:41 | 42.08785 | -4.10051 | 33130 ft | 454 kts | 187° |
| 2026-04-30 19:41 | 42.02491 | -4.10943 | 33133 ft | 454 kts | 187° |
| 2026-04-30 19:42 | 41.96222 | -4.11700 | 33133 ft | 454 kts | 186° |
| 2026-04-30 19:42 | 41.89943 | -4.12386 | 33124 ft | 454 kts | 186° |
| 2026-04-30 19:43 | 41.83657 | -4.13086 | 33130 ft | 454 kts | 186° |
| 2026-04-30 19:44 | 41.75279 | -4.14037 | 33133 ft | 453 kts | 186° |
| 2026-04-30 19:44 | 41.69002 | -4.14751 | 33119 ft | 453 kts | 186° |
| 2026-04-30 19:45 | 41.62713 | -4.15465 | 33115 ft | 453 kts | 186° |
| 2026-04-30 19:45 | 41.56421 | -4.16175 | 33122 ft | 452 kts | 186° |
| 2026-04-30 19:46 | 41.50182 | -4.16879 | 33123 ft | 452 kts | 186° |
| 2026-04-30 19:46 | 41.43923 | -4.17584 | 33122 ft | 452 kts | 186° |
| 2026-04-30 19:47 | 41.37624 | -4.18293 | 33127 ft | 452 kts | 186° |
| 2026-04-30 19:47 | 41.31398 | -4.18992 | 33125 ft | 452 kts | 186° |
| 2026-04-30 19:48 | 41.25152 | -4.19678 | 32861 ft | 441 kts | 185° |
| 2026-04-30 19:48 | 41.22123 | -4.19903 | 32138 ft | 439 kts | 183° |
| 2026-04-30 19:48 | 41.19022 | -4.20074 | 31074 ft | 444 kts | 183° |
| 2026-04-30 19:48 | 41.15959 | -4.20229 | 29923 ft | 450 kts | 183° |
| 2026-04-30 19:49 | 41.12791 | -4.20394 | 29018 ft | 449 kts | 183° |
| 2026-04-30 19:49 | 41.06922 | -4.20726 | 28126 ft | 403 kts | 184° |
| 2026-04-30 19:49 | 41.04138 | -4.20893 | 27699 ft | 396 kts | 184° |
| 2026-04-30 19:50 | 41.01406 | -4.21061 | 27307 ft | 389 kts | 184° |
| 2026-04-30 19:50 | 40.98723 | -4.21225 | 26862 ft | 385 kts | 184° |
| 2026-04-30 19:50 | 40.96068 | -4.21388 | 26362 ft | 383 kts | 184° |
| 2026-04-30 19:50 | 40.93418 | -4.21549 | 25853 ft | 381 kts | 184° |
| 2026-04-30 19:51 | 40.90778 | -4.21709 | 25363 ft | 380 kts | 183° |
| 2026-04-30 19:51 | 40.88143 | -4.21868 | 24906 ft | 378 kts | 183° |
| 2026-04-30 19:51 | 40.85499 | -4.22028 | 24483 ft | 376 kts | 183° |
| 2026-04-30 19:51 | 40.82908 | -4.22184 | 24067 ft | 374 kts | 183° |
| 2026-04-30 19:52 | 40.80319 | -4.22340 | 23662 ft | 372 kts | 183° |
| 2026-04-30 19:52 | 40.77736 | -4.22495 | 23205 ft | 371 kts | 183° |
| 2026-04-30 19:52 | 40.75141 | -4.22652 | 22810 ft | 368 kts | 183° |
| 2026-04-30 19:52 | 40.72599 | -4.22802 | 22452 ft | 365 kts | 183° |
| 2026-04-30 19:53 | 40.70073 | -4.22953 | 22050 ft | 363 kts | 183° |
| 2026-04-30 19:53 | 40.67564 | -4.23103 | 21675 ft | 361 kts | 183° |
| 2026-04-30 19:53 | 40.65109 | -4.23252 | 21061 ft | 345 kts | 184° |
| 2026-04-30 19:53 | 40.62737 | -4.23396 | 20092 ft | 340 kts | 184° |
| 2026-04-30 19:54 | 40.60378 | -4.23538 | 19029 ft | 337 kts | 184° |
| 2026-04-30 19:54 | 40.58012 | -4.23679 | 18568 ft | 339 kts | 184° |
| 2026-04-30 19:54 | 40.55658 | -4.23819 | 18133 ft | 339 kts | 184° |
| 2026-04-30 19:54 | 40.53338 | -4.23930 | 17662 ft | 335 kts | 180° |
| 2026-04-30 19:55 | 40.51044 | -4.23415 | 17227 ft | 335 kts | 163° |
| 2026-04-30 19:55 | 40.48888 | -4.22274 | 16844 ft | 334 kts | 160° |
| 2026-04-30 19:55 | 40.46746 | -4.21108 | 16449 ft | 333 kts | 160° |
| 2026-04-30 19:55 | 40.44599 | -4.19966 | 16034 ft | 332 kts | 161° |
| 2026-04-30 19:56 | 40.42465 | -4.18852 | 15618 ft | 331 kts | 161° |
| 2026-04-30 19:56 | 40.40319 | -4.17746 | 15219 ft | 331 kts | 161° |
| 2026-04-30 19:56 | 40.38182 | -4.16651 | 14779 ft | 330 kts | 161° |
| 2026-04-30 19:56 | 40.36084 | -4.15491 | 14364 ft | 325 kts | 153° |
| 2026-04-30 19:57 | 40.34380 | -4.13552 | 14018 ft | 328 kts | 130° |
| 2026-04-30 19:57 | 40.33278 | -4.10935 | 13657 ft | 332 kts | 113° |
| 2026-04-30 19:57 | 40.32533 | -4.08066 | 13240 ft | 334 kts | 110° |
| 2026-04-30 19:57 | 40.31833 | -4.05158 | 12892 ft | 333 kts | 109° |
| 2026-04-30 19:58 | 40.31144 | -4.02277 | 12545 ft | 331 kts | 109° |
| 2026-04-30 19:58 | 40.30451 | -3.99412 | 12231 ft | 328 kts | 109° |
| 2026-04-30 19:58 | 40.29759 | -3.96576 | 11893 ft | 325 kts | 110° |
| 2026-04-30 19:58 | 40.29060 | -3.93771 | 11555 ft | 323 kts | 110° |
| 2026-04-30 19:59 | 40.28365 | -3.90998 | 11345 ft | 316 kts | 110° |
| 2026-04-30 19:59 | 40.27709 | -3.88385 | 11154 ft | 290 kts | 110° |
| 2026-04-30 19:59 | 40.26490 | -3.83550 | 10674 ft | 273 kts | 110° |
| 2026-04-30 20:00 | 40.25901 | -3.81217 | 10516 ft | 268 kts | 110° |
| 2026-04-30 20:00 | 40.25320 | -3.78929 | 10282 ft | 266 kts | 110° |
| 2026-04-30 20:00 | 40.24736 | -3.76626 | 10023 ft | 265 kts | 110° |
| 2026-04-30 20:00 | 40.24154 | -3.74336 | 9736 ft | 265 kts | 110° |
| 2026-04-30 20:01 | 40.23008 | -3.69826 | 9289 ft | 258 kts | 110° |
| 2026-04-30 20:01 | 40.22446 | -3.67616 | 9104 ft | 253 kts | 110° |
| 2026-04-30 20:01 | 40.21893 | -3.65442 | 8839 ft | 252 kts | 110° |
| 2026-04-30 20:02 | 40.20797 | -3.61142 | 8116 ft | 244 kts | 110° |
| 2026-04-30 20:02 | 40.20263 | -3.59056 | 7604 ft | 244 kts | 110° |
| 2026-04-30 20:03 | 40.19186 | -3.54846 | 7035 ft | 242 kts | 110° |
| 2026-04-30 20:03 | 40.18651 | -3.52766 | 6767 ft | 241 kts | 110° |
| 2026-04-30 20:03 | 40.18126 | -3.50705 | 6523 ft | 239 kts | 110° |
| 2026-04-30 20:03 | 40.17594 | -3.48629 | 6278 ft | 237 kts | 109° |
| 2026-04-30 20:04 | 40.17442 | -3.46540 | 6039 ft | 232 kts | 79° |
| 2026-04-30 20:04 | 40.18137 | -3.44679 | 5723 ft | 227 kts | 51° |
| 2026-04-30 20:04 | 40.19226 | -3.43257 | 5416 ft | 218 kts | 43° |
| 2026-04-30 20:05 | 40.21449 | -3.40924 | 4850 ft | 192 kts | 30° |
| 2026-04-30 20:05 | 40.22578 | -3.40111 | 4591 ft | 183 kts | 28° |
| 2026-04-30 20:05 | 40.24774 | -3.38563 | 4117 ft | 170 kts | 22° |
| 2026-04-30 20:06 | 40.25900 | -3.38388 | 4011 ft | 161 kts | 351° |
| 2026-04-30 20:06 | 40.27002 | -3.38607 | 4045 ft | 162 kts | 353° |
| 2026-04-30 20:06 | 40.28139 | -3.38789 | 4026 ft | 166 kts | 353° |
| 2026-04-30 20:06 | 40.29273 | -3.38976 | 4035 ft | 166 kts | 352° |
| 2026-04-30 20:07 | 40.30320 | -3.39467 | 4007 ft | 156 kts | 327° |
| 2026-04-30 20:07 | 40.31265 | -3.40277 | 4035 ft | 167 kts | 327° |
| 2026-04-30 20:07 | 40.33118 | -3.42022 | 4014 ft | 163 kts | 323° |
| 2026-04-30 20:08 | 40.34016 | -3.42922 | 4022 ft | 162 kts | 322° |
| 2026-04-30 20:08 | 40.34908 | -3.43823 | 4017 ft | 160 kts | 322° |
| 2026-04-30 20:08 | 40.35795 | -3.44722 | 4014 ft | 160 kts | 322° |
| 2026-04-30 20:08 | 40.36669 | -3.45607 | 4047 ft | 161 kts | 322° |
| 2026-04-30 20:09 | 40.37547 | -3.46502 | 4048 ft | 158 kts | 322° |
| 2026-04-30 20:09 | 40.38411 | -3.47372 | 3938 ft | 156 kts | 322° |
| 2026-04-30 20:09 | 40.40005 | -3.48990 | 3573 ft | 139 kts | 322° |
| 2026-04-30 20:10 | 40.41528 | -3.50539 | 3215 ft | 139 kts | 323° |
| 2026-04-30 20:10 | 40.42307 | -3.51329 | 2942 ft | 138 kts | 323° |
| 2026-04-30 20:10 | 40.43059 | -3.52090 | 2774 ft | 137 kts | 323° |
| 2026-04-30 20:11 | 40.44554 | -3.53630 | 2428 ft | 137 kts | 321° |
| 2026-04-30 20:11 | 40.45316 | -3.54397 | 2193 ft | 137 kts | 325° |
| 2026-04-30 20:11 | 40.46068 | -3.55145 | 2016 ft | 135 kts | 324° |
| 2026-04-30 20:12 | 40.47491 | -3.56585 | 1998 ft | 98 kts | 323° |
| 2026-04-30 20:12 | 40.47883 | -3.56982 | 2000 ft | 50 kts | 324° |
| 2026-04-30 20:12 | 40.48074 | -3.57115 | 2006 ft | 23 kts | 339° |
| 2026-04-30 20:13 | 40.48223 | -3.57174 | 2007 ft | 21 kts | 344° |
| 2026-04-30 20:13 | 40.48319 | -3.57202 | 2004 ft | 6 kts | 348° |
| 2026-04-30 20:13 | 40.48368 | -3.57213 | 2005 ft | 8 kts | 352° |
| 2026-04-30 20:13 | 40.48428 | -3.57222 | 2002 ft | 9 kts | 354° |
| 2026-04-30 20:14 | 40.48502 | -3.57225 | 1999 ft | 12 kts | 358° |
| 2026-04-30 20:14 | 40.48599 | -3.57227 | 1998 ft | 15 kts | 360° |
| 2026-04-30 20:14 | 40.48706 | -3.57227 | 1991 ft | 18 kts | 0° |
| 2026-04-30 20:14 | 40.48843 | -3.57227 | 1988 ft | 20 kts | 360° |
| 2026-04-30 20:15 | 40.48933 | -3.57226 | 1989 ft | 10 kts | 2° |
| 2026-04-30 20:15 | 40.49000 | -3.57226 | 1990 ft | 10 kts | 1° |
| 2026-04-30 20:15 | 40.49050 | -3.57173 | 1989 ft | 10 kts | 70° |
| 2026-04-30 20:15 | 40.49057 | -3.57078 | 1988 ft | 11 kts | 90° |
| 2026-04-30 20:16 | 40.49056 | -3.56971 | 1986 ft | 12 kts | 89° |
| 2026-04-30 20:16 | 40.49057 | -3.56897 | 1984 ft | 0 kts | 89° |
| 2026-04-30 20:16 | 40.49057 | -3.56884 | 1984 ft | 2 kts | 89° |
| 2026-04-30 20:16 | 40.49057 | -3.56867 | 1983 ft | 1 kts | 89° |
| 2026-04-30 20:17 | 40.49057 | -3.56865 | 1983 ft | 0 kts | 89° |